createdAt,value
2019-05-14T00:01:03.331Z,9.40
2019-05-14T00:03:33.279Z,9.52
2019-05-14T00:06:02.756Z,9.50
2019-05-14T00:08:32.211Z,9.48
2019-05-14T00:11:01.683Z,9.44
2019-05-14T00:13:32.106Z,9.50
2019-05-14T00:16:01.795Z,9.54
2019-05-14T00:18:31.695Z,9.57
2019-05-14T00:21:01.981Z,9.63
2019-05-14T00:23:32.053Z,9.71
2019-05-14T00:26:02.065Z,9.80
2019-05-14T00:28:31.996Z,9.77
2019-05-14T00:31:02.928Z,9.74
2019-05-14T00:33:32.518Z,9.65
2019-05-14T00:36:02.292Z,9.66
2019-05-14T00:38:31.794Z,9.56
2019-05-14T00:41:02.016Z,9.50
2019-05-14T00:43:32.365Z,9.53
2019-05-14T00:46:02.454Z,9.57
2019-05-14T00:48:32.101Z,9.35
2019-05-14T00:51:02.414Z,9.38
2019-05-14T00:53:32.299Z,9.27
2019-05-14T00:56:02.375Z,9.37
2019-05-14T00:58:32.428Z,9.24
2019-05-14T01:01:01.970Z,9.16
2019-05-14T01:03:32.371Z,9.04
2019-05-14T01:06:03.145Z,9.09
2019-05-14T01:08:32.700Z,9.28
2019-05-14T01:11:02.197Z,9.28
2019-05-14T01:13:31.650Z,9.24
2019-05-14T01:16:01.703Z,9.15
2019-05-14T01:18:32.289Z,9.13
2019-05-14T01:21:02.004Z,9.09
2019-05-14T01:23:32.312Z,9.03
2019-05-14T01:26:02.508Z,9.00
2019-05-14T01:28:32.384Z,9.02
2019-05-14T01:31:01.842Z,8.90
2019-05-14T01:33:31.806Z,8.98
2019-05-14T01:36:02.092Z,9.04
2019-05-14T01:38:31.801Z,9.03
2019-05-14T01:41:01.854Z,8.87
2019-05-14T01:43:31.735Z,8.99
2019-05-14T01:46:02.033Z,9.04
2019-05-14T01:48:31.767Z,9.03
2019-05-14T01:51:01.744Z,9.12
2019-05-14T01:53:31.524Z,9.05
2019-05-14T01:56:01.587Z,9.07
2019-05-14T01:58:31.550Z,9.06
2019-05-14T02:01:02.016Z,9.02
2019-05-14T02:03:32.243Z,9.05
2019-05-14T02:06:02.171Z,8.96
2019-05-14T02:08:32.414Z,8.90
2019-05-14T02:11:02.071Z,8.86
2019-05-14T02:13:32.295Z,8.93
2019-05-14T02:16:02.596Z,8.71
2019-05-14T02:18:32.314Z,8.81
2019-05-14T02:21:01.915Z,8.81
2019-05-14T02:23:31.991Z,8.91
2019-05-14T02:26:02.514Z,8.97
2019-05-14T02:28:32.276Z,8.74
2019-05-14T02:31:03.310Z,8.70
2019-05-14T02:33:32.875Z,8.71
2019-05-14T02:36:02.337Z,8.67
2019-05-14T02:38:31.765Z,8.77
2019-05-14T02:41:01.224Z,8.74
2019-05-14T02:43:30.662Z,8.75
2019-05-14T02:46:10.000Z,8.75
2019-05-14T02:48:31.344Z,8.75
2019-05-14T02:51:00.786Z,8.71
2019-05-14T02:53:30.463Z,8.69
2019-05-14T02:56:00.064Z,8.51
2019-05-14T02:58:30.036Z,8.44
2019-05-14T03:01:00.630Z,8.22
2019-05-14T03:03:30.385Z,8.08
2019-05-14T03:06:00.739Z,8.03
2019-05-14T03:08:30.865Z,7.72
2019-05-14T03:11:00.709Z,7.80
2019-05-14T03:13:30.294Z,7.67
2019-05-14T03:15:59.951Z,7.26
2019-05-14T03:18:29.983Z,6.97
2019-05-14T03:21:00.909Z,7.10
2019-05-14T03:23:30.596Z,7.09
2019-05-14T03:26:00.893Z,7.14
2019-05-14T03:28:30.872Z,7.23
2019-05-14T03:31:02.674Z,7.31
2019-05-14T03:33:33.157Z,7.41
2019-05-14T03:36:09.442Z,7.42
2019-05-14T03:38:34.113Z,7.45
2019-05-14T03:41:03.594Z,7.38
2019-05-14T03:43:33.449Z,7.57
2019-05-14T03:46:03.034Z,7.60
2019-05-14T03:48:32.543Z,7.75
2019-05-14T03:51:02.061Z,7.80
2019-05-14T03:53:31.591Z,7.79
2019-05-14T03:56:01.804Z,7.81
2019-05-14T03:58:31.274Z,7.83
2019-05-14T04:01:02.656Z,7.83
2019-05-14T04:03:32.973Z,7.80
2019-05-14T04:06:03.467Z,7.81
2019-05-14T04:08:35.339Z,7.78
2019-05-14T04:11:04.934Z,7.75
2019-05-14T04:13:34.513Z,7.61
2019-05-14T04:16:04.484Z,7.48
2019-05-14T04:18:40.268Z,7.58
2019-05-14T04:21:09.951Z,7.68
2019-05-14T04:23:43.011Z,7.74
2019-05-14T04:26:14.192Z,7.75
2019-05-14T04:28:49.463Z,7.71
2019-05-14T04:31:20.132Z,7.73
2019-05-14T04:33:50.602Z,7.81
2019-05-14T04:36:20.344Z,7.97
2019-05-14T04:38:54.167Z,7.98
2019-05-14T04:41:20.969Z,8.09
2019-05-14T04:43:50.622Z,8.22
2019-05-14T04:46:20.440Z,8.46
2019-05-14T04:48:50.991Z,8.54
2019-05-14T04:51:20.732Z,8.72
2019-05-14T04:53:50.556Z,8.82
2019-05-14T04:56:20.246Z,8.83
2019-05-14T04:58:50.414Z,9.01
2019-05-14T05:01:20.959Z,9.05
2019-05-14T05:03:51.097Z,9.24
2019-05-14T05:06:20.591Z,9.24
2019-05-14T05:08:50.391Z,9.22
2019-05-14T05:11:21.218Z,9.39
2019-05-14T05:13:51.211Z,9.57
2019-05-14T05:16:20.630Z,9.62
2019-05-14T05:18:50.103Z,9.50
2019-05-14T05:21:19.588Z,9.51
2019-05-14T05:23:49.577Z,9.45
2019-05-14T05:26:19.187Z,9.52
2019-05-14T05:29:02.392Z,9.51
2019-05-14T05:31:19.868Z,9.64
2019-05-14T05:33:49.331Z,9.46
2019-05-14T05:36:18.837Z,9.59
2019-05-14T05:38:49.299Z,9.92
2019-05-14T05:41:19.188Z,9.91
2019-05-14T05:43:48.893Z,10.04
2019-05-14T05:46:19.165Z,10.10
2019-05-14T05:48:48.948Z,10.23
2019-05-14T05:51:18.883Z,10.05
2019-05-14T05:53:48.647Z,10.11
2019-05-14T05:56:18.889Z,10.12
2019-05-14T05:58:49.066Z,10.17
2019-05-14T06:01:19.631Z,10.25
2019-05-14T06:03:49.691Z,10.29
2019-05-14T06:06:19.417Z,10.27
2019-05-14T06:08:49.524Z,10.30
2019-05-14T06:11:19.643Z,10.24
2019-05-14T06:13:49.193Z,10.02
2019-05-14T06:16:19.000Z,10.25
2019-05-14T06:18:48.859Z,10.24
2019-05-14T06:21:19.352Z,10.32
2019-05-14T06:23:49.532Z,10.58
2019-05-14T06:26:19.542Z,10.64
2019-05-14T06:28:49.803Z,10.58
2019-05-14T06:31:19.621Z,10.90
2019-05-14T06:33:49.250Z,10.75
2019-05-14T06:36:19.699Z,11.12
2019-05-14T06:38:49.824Z,11.06
2019-05-14T06:41:19.489Z,11.07
2019-05-14T06:43:49.128Z,11.20
2019-05-14T06:46:19.355Z,11.23
2019-05-14T06:48:49.142Z,11.04
2019-05-14T06:51:20.035Z,11.25
2019-05-14T06:53:50.101Z,11.22
2019-05-14T06:56:21.777Z,11.53
2019-05-14T06:58:50.846Z,11.90
2019-05-14T07:01:20.305Z,12.11
2019-05-14T07:03:49.874Z,12.32
2019-05-14T07:06:19.386Z,12.62
2019-05-14T07:08:52.451Z,12.74
2019-05-14T07:11:20.027Z,12.79
2019-05-14T07:13:49.536Z,12.66
2019-05-14T07:16:19.964Z,12.88
2019-05-14T07:18:53.949Z,13.19
2019-05-14T07:21:20.788Z,13.11
2019-05-14T07:23:50.233Z,13.29
2019-05-14T07:26:19.734Z,13.12
2019-05-14T07:28:49.284Z,13.47
2019-05-14T07:31:18.935Z,13.67
2019-05-14T07:33:49.244Z,13.67
2019-05-14T07:36:19.295Z,13.67
2019-05-14T07:38:49.387Z,13.69
2019-05-14T07:41:19.584Z,13.99
2019-05-14T07:43:49.266Z,14.18
2019-05-14T07:46:19.291Z,14.39
2019-05-14T07:49:03.457Z,14.73
2019-05-14T07:51:20.025Z,14.77
2019-05-14T07:53:49.490Z,14.70
2019-05-14T07:56:19.066Z,14.69
2019-05-14T07:58:49.265Z,14.88
2019-05-14T08:01:19.059Z,14.90
2019-05-14T08:03:49.109Z,14.93
2019-05-14T08:06:19.073Z,14.52
2019-05-14T08:08:49.477Z,14.84
2019-05-14T08:11:19.348Z,14.93
2019-05-14T08:13:49.594Z,14.64
2019-05-14T08:16:22.535Z,14.59
2019-05-14T08:18:51.978Z,14.24
2019-05-14T08:21:21.441Z,14.12
2019-05-14T08:23:50.894Z,14.26
2019-05-14T08:26:20.359Z,14.46
2019-05-14T08:28:49.865Z,14.62
2019-05-14T08:31:19.313Z,14.61
2019-05-14T08:33:49.241Z,14.94
2019-05-14T08:36:19.341Z,15.17
2019-05-14T08:38:49.995Z,15.61
2019-05-14T08:41:20.117Z,15.34
2019-05-14T08:43:49.687Z,15.45
2019-05-14T08:46:19.556Z,15.37
2019-05-14T08:48:49.881Z,15.49
2019-05-14T08:51:19.556Z,15.43
2019-05-14T08:53:50.594Z,16.00
2019-05-14T08:56:20.189Z,16.23
2019-05-14T08:58:49.738Z,16.48
2019-05-14T09:01:19.889Z,16.65
2019-05-14T09:03:49.645Z,16.71
2019-05-14T09:06:19.449Z,16.25
2019-05-14T09:08:49.603Z,16.41
2019-05-14T09:11:24.386Z,16.52
2019-05-14T09:13:50.707Z,16.39
2019-05-14T09:16:20.166Z,16.35
2019-05-14T09:18:49.614Z,16.45
2019-05-14T09:21:20.627Z,16.60
2019-05-14T09:23:50.281Z,16.99
2019-05-14T09:26:19.723Z,17.07
2019-05-14T09:28:49.168Z,16.99
2019-05-14T09:31:19.866Z,17.12
2019-05-14T09:33:49.835Z,16.77
2019-05-14T09:36:24.036Z,16.99
2019-05-14T09:38:50.699Z,16.71
2019-05-14T09:41:20.588Z,17.13
2019-05-14T09:43:50.031Z,16.86
2019-05-14T09:46:19.496Z,17.29
2019-05-14T09:48:48.981Z,17.60
2019-05-14T09:51:18.692Z,17.88
2019-05-14T09:53:49.081Z,17.64
2019-05-14T09:56:18.995Z,18.26
2019-05-14T09:58:49.586Z,18.22
2019-05-14T10:01:19.711Z,17.37
2019-05-14T10:03:49.902Z,16.70
2019-05-14T10:06:20.866Z,17.44
2019-05-14T10:08:50.510Z,17.75
2019-05-14T10:11:19.938Z,18.45
2019-05-14T10:13:49.395Z,18.90
2019-05-14T10:16:19.229Z,19.20
2019-05-14T10:18:52.380Z,18.90
2019-05-14T10:21:20.248Z,18.83
2019-05-14T10:23:49.701Z,18.98
2019-05-14T10:26:19.155Z,19.10
2019-05-14T10:28:48.721Z,18.71
2019-05-14T10:31:18.643Z,18.18
2019-05-14T10:33:48.728Z,18.51
2019-05-14T10:36:19.278Z,18.72
2019-05-14T10:38:48.864Z,18.74
2019-05-14T10:41:18.692Z,19.33
2019-05-14T10:43:49.746Z,19.72
2019-05-14T10:46:19.554Z,19.91
2019-05-14T10:48:49.081Z,19.76
2019-05-14T10:51:18.522Z,19.57
2019-05-14T10:53:48.825Z,18.82
2019-05-14T10:56:19.232Z,18.08
2019-05-14T10:58:49.301Z,18.34
2019-05-14T11:01:22.493Z,18.23
2019-05-14T11:03:50.070Z,18.03
2019-05-14T11:06:19.505Z,17.89
2019-05-14T11:08:49.425Z,18.29
2019-05-14T11:11:19.019Z,18.61
2019-05-14T11:13:48.556Z,18.23
2019-05-14T11:16:19.099Z,17.89
2019-05-14T11:18:49.687Z,18.36
2019-05-14T11:21:26.115Z,18.26
2019-05-14T11:23:50.733Z,18.43
2019-05-14T11:26:20.175Z,18.40
2019-05-14T11:28:49.649Z,18.69
2019-05-14T11:31:19.484Z,18.87
2019-05-14T11:33:49.942Z,18.82
2019-05-14T11:36:19.573Z,18.63
2019-05-14T11:38:50.662Z,18.17
2019-05-14T11:41:20.502Z,18.65
2019-05-14T11:43:49.938Z,18.96
2019-05-14T11:46:33.807Z,18.72
2019-05-14T11:48:50.667Z,18.80
2019-05-14T11:51:45.776Z,18.72
2019-05-14T11:53:51.296Z,18.69
2019-05-14T11:56:20.743Z,18.91
2019-05-14T11:58:50.338Z,19.32
2019-05-14T12:01:19.810Z,19.62
2019-05-14T12:03:50.317Z,19.98
2019-05-14T12:06:20.079Z,20.23
2019-05-14T12:08:49.592Z,19.95
2019-05-14T12:11:19.589Z,20.18
2019-05-14T12:13:49.187Z,20.17
2019-05-14T12:16:18.643Z,20.61
2019-05-14T12:18:48.502Z,21.11
2019-05-14T12:21:18.182Z,21.35
2019-05-14T12:23:47.641Z,21.26
2019-05-14T12:26:19.151Z,20.81
2019-05-14T12:28:49.373Z,20.75
2019-05-14T12:31:19.051Z,21.13
2019-05-14T12:33:48.963Z,21.71
2019-05-14T12:36:19.251Z,21.26
2019-05-14T12:38:49.071Z,20.74
2019-05-14T12:41:19.403Z,20.44
2019-05-14T12:43:49.369Z,20.14
2019-05-14T12:46:20.206Z,20.13
2019-05-14T12:48:49.817Z,19.26
2019-05-14T12:51:19.284Z,19.13
2019-05-14T12:53:49.097Z,19.45
2019-05-14T12:56:18.906Z,19.39
2019-05-14T12:58:49.102Z,20.21
2019-05-14T13:01:20.086Z,20.42
2019-05-14T13:03:49.726Z,20.55
2019-05-14T13:06:19.369Z,20.65
2019-05-14T13:08:49.318Z,21.39
2019-05-14T13:11:18.899Z,21.89
2019-05-14T13:13:48.991Z,22.60
2019-05-14T13:16:21.447Z,22.58
2019-05-14T13:18:50.875Z,22.95
2019-05-14T13:21:20.331Z,21.78
2019-05-14T13:23:49.775Z,20.84
2019-05-14T13:26:19.270Z,20.84
2019-05-14T13:28:50.840Z,21.33
2019-05-14T13:31:19.866Z,21.75
2019-05-14T13:33:49.335Z,21.79
2019-05-14T13:36:20.487Z,22.93
2019-05-14T13:38:49.948Z,24.02
2019-05-14T13:41:19.572Z,25.25
2019-05-14T13:43:50.483Z,24.10
2019-05-14T13:46:20.261Z,23.04
2019-05-14T13:48:50.254Z,22.08
2019-05-14T13:51:19.840Z,23.88
2019-05-14T13:53:49.831Z,25.83
2019-05-14T13:56:19.593Z,25.59
2019-05-14T13:58:49.227Z,23.42
2019-05-14T14:01:19.496Z,25.02
2019-05-14T14:04:02.595Z,25.87
2019-05-14T14:06:20.904Z,27.28
2019-05-14T14:08:50.529Z,27.10
2019-05-14T14:11:19.998Z,26.67
2019-05-14T14:13:49.676Z,25.33
2019-05-14T14:16:19.959Z,24.85
2019-05-14T14:18:50.251Z,25.06
2019-05-14T14:21:20.012Z,26.48
2019-05-14T14:23:49.905Z,27.98
2019-05-14T14:26:19.459Z,27.23
2019-05-14T14:28:49.525Z,27.26
2019-05-14T14:31:19.239Z,27.63
2019-05-14T14:33:49.052Z,26.51
2019-05-14T14:36:20.022Z,26.55
2019-05-14T14:38:49.984Z,26.66
2019-05-14T14:41:19.764Z,27.23
2019-05-14T14:43:53.937Z,27.77
2019-05-14T14:46:20.505Z,27.98
2019-05-14T14:48:49.968Z,27.39
2019-05-14T14:51:19.695Z,25.53
2019-05-14T14:53:58.820Z,23.90
2019-05-14T14:56:20.416Z,22.94
2019-05-14T14:58:50.157Z,22.88
2019-05-14T15:01:20.019Z,25.26
2019-05-14T15:03:50.717Z,27.27
2019-05-14T15:06:20.711Z,28.78
2019-05-14T15:08:50.283Z,28.62
2019-05-14T15:11:19.744Z,26.47
2019-05-14T15:13:49.183Z,24.39
2019-05-14T15:16:20.111Z,23.60
2019-05-14T15:18:50.006Z,23.35
2019-05-14T15:21:19.624Z,25.05
2019-05-14T15:24:05.950Z,25.73
2019-05-14T15:26:20.293Z,27.34
2019-05-14T15:28:49.897Z,26.48
2019-05-14T15:31:19.470Z,24.92
2019-05-14T15:33:50.968Z,23.72
2019-05-14T15:36:20.253Z,23.42
2019-05-14T15:38:50.482Z,23.01
2019-05-14T15:41:20.635Z,23.68
2019-05-14T15:43:50.108Z,23.58
2019-05-14T15:46:19.562Z,23.00
2019-05-14T15:48:49.084Z,22.49
2019-05-14T15:51:19.637Z,21.73
2019-05-14T15:54:05.637Z,21.27
2019-05-14T15:56:20.513Z,20.88
2019-05-14T15:58:49.942Z,20.87
2019-05-14T16:01:19.613Z,20.90
2019-05-14T16:03:49.066Z,21.51
2019-05-14T16:06:19.303Z,23.76
2019-05-14T16:08:49.101Z,24.74
2019-05-14T16:11:18.900Z,25.81
2019-05-14T16:13:49.376Z,25.32
2019-05-14T16:16:19.709Z,24.10
2019-05-14T16:18:49.257Z,22.96
2019-05-14T16:21:18.722Z,22.37
2019-05-14T16:23:48.179Z,21.79
2019-05-14T16:26:18.721Z,22.10
2019-05-14T16:28:48.371Z,23.78
2019-05-14T16:31:18.459Z,24.03
2019-05-14T16:33:49.347Z,24.35
2019-05-14T16:36:19.274Z,23.88
2019-05-14T16:38:48.741Z,23.72
2019-05-14T16:41:18.619Z,23.01
2019-05-14T16:43:49.380Z,22.25
2019-05-14T16:46:19.156Z,21.92
2019-05-14T16:48:49.022Z,23.10
2019-05-14T16:51:19.457Z,24.68
2019-05-14T16:53:49.097Z,25.34
2019-05-14T16:56:19.261Z,26.17
2019-05-14T16:58:48.820Z,27.20
2019-05-14T17:01:19.278Z,28.39
2019-05-14T17:03:49.565Z,28.83
2019-05-14T17:06:19.193Z,29.87
2019-05-14T17:08:49.163Z,30.83
2019-05-14T17:11:18.781Z,28.75
2019-05-14T17:13:48.856Z,26.29
2019-05-14T17:16:19.489Z,24.47
2019-05-14T17:18:49.267Z,23.38
2019-05-14T17:21:18.781Z,22.51
2019-05-14T17:23:48.958Z,21.80
2019-05-14T17:26:19.017Z,21.34
2019-05-14T17:28:49.046Z,22.22
2019-05-14T17:31:19.150Z,23.52
2019-05-14T17:33:49.298Z,22.54
2019-05-14T17:36:19.011Z,21.40
2019-05-14T17:38:49.144Z,22.02
2019-05-14T17:41:19.531Z,21.97
2019-05-14T17:43:49.602Z,21.13
2019-05-14T17:46:19.208Z,20.18
2019-05-14T17:48:48.924Z,19.32
2019-05-14T17:51:18.414Z,19.15
2019-05-14T17:53:48.239Z,19.29
2019-05-14T17:56:19.181Z,19.72
2019-05-14T17:58:49.173Z,19.94
2019-05-14T18:01:18.767Z,20.62
2019-05-14T18:03:49.040Z,20.11
2019-05-14T18:06:19.103Z,20.08
2019-05-14T18:08:48.634Z,19.70
2019-05-14T18:11:19.176Z,19.20
2019-05-14T18:13:48.884Z,18.83
2019-05-14T18:16:19.202Z,18.66
2019-05-14T18:18:49.442Z,18.61
2019-05-14T18:21:19.295Z,18.27
2019-05-14T18:23:49.344Z,18.04
2019-05-14T18:26:19.121Z,17.98
2019-05-14T18:28:48.896Z,17.73
2019-05-14T18:31:20.106Z,17.54
2019-05-14T18:33:49.615Z,17.41
2019-05-14T18:36:19.298Z,17.24
2019-05-14T18:38:49.460Z,17.09
2019-05-14T18:41:19.317Z,16.70
2019-05-14T18:43:48.817Z,16.39
2019-05-14T18:46:19.210Z,16.51
2019-05-14T18:48:49.015Z,16.51
2019-05-14T18:51:19.687Z,16.41
2019-05-14T18:53:49.400Z,16.08
2019-05-14T18:56:23.881Z,16.15
2019-05-14T18:58:50.090Z,16.07
2019-05-14T19:01:19.874Z,15.78
2019-05-14T19:03:49.601Z,15.77
2019-05-14T19:06:19.483Z,15.59
2019-05-14T19:08:48.924Z,15.42
2019-05-14T19:11:18.491Z,15.43
2019-05-14T19:13:48.488Z,15.37
2019-05-14T19:16:18.040Z,15.16
2019-05-14T19:18:48.876Z,15.00
2019-05-14T19:21:18.480Z,14.99
2019-05-14T19:23:49.119Z,14.78
2019-05-14T19:26:33.071Z,14.71
2019-05-14T19:28:49.934Z,14.54
2019-05-14T19:31:19.426Z,14.49
2019-05-14T19:33:48.947Z,14.36
2019-05-14T19:36:18.830Z,14.24
2019-05-14T19:38:48.348Z,13.77
2019-05-14T19:41:20.940Z,13.73
2019-05-14T19:43:48.930Z,13.65
2019-05-14T19:46:18.366Z,13.35
2019-05-14T19:48:48.384Z,13.18
2019-05-14T19:51:18.841Z,12.99
2019-05-14T19:53:49.526Z,12.89
2019-05-14T19:56:19.558Z,12.83
2019-05-14T19:58:49.154Z,12.86
2019-05-14T20:01:19.442Z,12.66
2019-05-14T20:03:48.901Z,12.47
2019-05-14T20:06:18.829Z,12.41
2019-05-14T20:08:48.484Z,12.24
2019-05-14T20:11:19.324Z,12.27
2019-05-14T20:13:48.819Z,12.37
2019-05-14T20:16:18.594Z,12.18
2019-05-14T20:18:48.794Z,11.90
2019-05-14T20:21:18.275Z,11.65
2019-05-14T20:23:48.242Z,11.54
2019-05-14T20:26:17.755Z,11.50
2019-05-14T20:28:48.439Z,11.60
2019-05-14T20:31:18.170Z,11.60
2019-05-14T20:33:48.614Z,11.66
2019-05-14T20:36:18.808Z,11.60
2019-05-14T20:38:48.340Z,11.36
2019-05-14T20:41:18.102Z,11.43
2019-05-14T20:43:48.037Z,11.32
2019-05-14T20:46:18.608Z,11.25
2019-05-14T20:48:48.240Z,11.06
2019-05-14T20:51:18.755Z,10.97
2019-05-14T20:53:48.845Z,10.87
2019-05-14T20:56:19.044Z,10.82
2019-05-14T20:58:48.658Z,10.89
2019-05-14T21:01:18.583Z,10.88
2019-05-14T21:03:48.438Z,10.93
2019-05-14T21:06:18.758Z,10.90
2019-05-14T21:08:49.020Z,10.92
2019-05-14T21:11:19.195Z,10.83
2019-05-14T21:13:50.370Z,10.86
2019-05-14T21:16:19.967Z,10.63
2019-05-14T21:18:49.414Z,10.40
2019-05-14T21:21:18.855Z,10.42
2019-05-14T21:23:48.980Z,10.31
2019-05-14T21:26:19.348Z,10.28
2019-05-14T21:28:49.016Z,10.23
2019-05-14T21:31:18.474Z,10.12
2019-05-14T21:33:48.981Z,10.07
2019-05-14T21:36:19.428Z,9.88
2019-05-14T21:38:49.301Z,9.83
2019-05-14T21:41:20.466Z,9.99
2019-05-14T21:43:50.065Z,10.08
2019-05-14T21:46:19.609Z,10.05
2019-05-14T21:48:49.107Z,10.11
2019-05-14T21:51:18.556Z,10.15
2019-05-14T21:53:48.405Z,10.20
2019-05-14T21:56:18.527Z,10.15
2019-05-14T21:58:49.025Z,10.15
2019-05-14T22:01:18.977Z,10.20
2019-05-14T22:03:48.662Z,10.15
2019-05-14T22:06:18.609Z,10.14
2019-05-14T22:08:48.799Z,9.84
2019-05-14T22:11:18.976Z,9.71
2019-05-14T22:13:49.634Z,9.65
2019-05-14T22:16:19.483Z,9.75
2019-05-14T22:18:48.924Z,9.70
2019-05-14T22:21:18.542Z,9.60
2019-05-14T22:23:48.242Z,9.71
2019-05-14T22:26:18.584Z,9.69
2019-05-14T22:28:48.231Z,9.47
2019-05-14T22:31:19.246Z,9.46
2019-05-14T22:33:48.791Z,9.38
2019-05-14T22:36:21.479Z,9.30
2019-05-14T22:38:49.562Z,9.11
2019-05-14T22:41:19.017Z,9.09
2019-05-14T22:43:51.346Z,9.07
2019-05-14T22:46:19.639Z,8.91
2019-05-14T22:48:51.729Z,8.80
2019-05-14T22:51:20.247Z,8.68
2019-05-14T22:53:49.686Z,8.76
2019-05-14T22:56:19.121Z,8.66
2019-05-14T22:58:48.952Z,8.58
2019-05-14T23:01:18.681Z,8.67
2019-05-14T23:03:49.191Z,8.43
2019-05-14T23:06:18.966Z,8.50
2019-05-14T23:08:48.869Z,8.39
2019-05-14T23:11:19.784Z,8.44
2019-05-14T23:13:49.372Z,8.37
2019-05-14T23:16:30.940Z,8.31
2019-05-14T23:18:49.980Z,8.31
2019-05-14T23:21:19.442Z,8.31
2019-05-14T23:23:48.878Z,8.19
2019-05-14T23:26:19.235Z,8.07
2019-05-14T23:28:49.277Z,8.09
2019-05-14T23:31:18.837Z,8.02
2019-05-14T23:33:49.001Z,7.92
2019-05-14T23:36:18.847Z,7.86
2019-05-14T23:38:49.253Z,7.92
2019-05-14T23:41:19.423Z,7.85
2019-05-14T23:43:48.885Z,7.81
2019-05-14T23:46:18.464Z,7.70
2019-05-14T23:48:48.482Z,7.51
2019-05-14T23:51:18.351Z,7.51
2019-05-14T23:53:48.327Z,7.49
2019-05-14T23:56:19.403Z,7.46
2019-05-14T23:58:55.744Z,7.40
